Time;durP1;ratioP1;P1;durP2;ratioP2;P2;SDS_P1;SDS_P2;PMS_P1;PMS_P2;Temp;Humidity;BMP_temperature;BMP_pressure;BME280_temperature;BME280_humidity;BME280_pressure;Samples;Min_cycle;Max_cycle;Signal;HPM_P1;HPM_P2
2022/05/01 00:01:01;;;;;;;47.20;26.60;;;;;;;8.03;50.33;99109.34;220810;1274;22544;-72
2022/05/01 00:06:06;;;;;;;43.00;26.00;;;;;;;8.08;50.51;99105.31;221090;1274;162506;-72
2022/05/01 00:11:09;;;;;;;43.30;24.80;;;;;;;8.12;50.36;99102.75;221444;1273;22534;-73
2022/05/01 00:16:22;;;;;;;40.90;23.70;;;;;;;8.11;50.40;99099.13;221281;1274;22581;-71
2022/05/01 00:21:33;;;;;;;42.40;23.60;;;;;;;8.08;50.82;99102.38;221448;1273;24238;-71
2022/05/01 00:26:50;;;;;;;49.40;26.50;;;;;;;8.01;51.15;99099.36;221125;1274;25576;-71
2022/05/01 00:31:53;;;;;;;47.90;26.80;;;;;;;7.91;51.23;99092.67;221222;1273;22610;-71
2022/05/01 00:36:55;;;;;;;45.90;25.10;;;;;;;7.81;51.40;99089.82;221136;1273;25355;-72
2022/05/01 00:41:58;;;;;;;39.50;24.30;;;;;;;7.71;51.49;99084.98;220986;1274;22570;-71
2022/05/01 00:47:00;;;;;;;42.60;24.30;;;;;;;7.59;51.61;99083.86;221087;1274;22724;-72
2022/05/01 00:52:08;;;;;;;40.20;24.30;;;;;;;7.49;51.91;99079.61;221321;1274;25312;-72
2022/05/01 00:57:11;;;;;;;42.20;23.60;;;;;;;7.38;51.98;99082.98;221867;1274;22576;-72
2022/05/01 01:02:14;;;;;;;37.70;21.90;;;;;;;7.29;52.51;99079.73;220785;1276;22706;-72
2022/05/01 01:07:31;;;;;;;37.60;22.80;;;;;;;7.21;52.66;99078.84;221041;1273;22734;-71
2022/05/01 01:12:59;;;;;;;34.20;21.10;;;;;;;7.13;52.90;99080.29;221243;1274;22531;-72
2022/05/01 01:18:02;;;;;;;34.90;21.20;;;;;;;7.09;52.87;99084.90;220998;1275;22595;-71
2022/05/01 01:23:21;;;;;;;38.60;21.50;;;;;;;7.07;53.34;99084.89;220863;1276;22534;-71
2022/05/01 01:28:27;;;;;;;36.90;23.50;;;;;;;7.04;53.43;99081.58;221224;1274;22570;-71
2022/05/01 01:33:45;;;;;;;39.70;23.30;;;;;;;7.01;53.67;99079.85;221428;1274;22564;-71
2022/05/01 01:39:08;;;;;;;42.00;25.60;;;;;;;6.96;53.80;99075.23;221289;1274;24138;-71
2022/05/01 01:44:12;;;;;;;40.80;24.10;;;;;;;6.92;54.40;99069.08;221020;1274;22497;-72
2022/05/01 01:49:17;;;;;;;39.20;24.10;;;;;;;6.85;54.60;99067.82;220835;1276;22748;-71
2022/05/01 01:54:24;;;;;;;40.30;25.50;;;;;;;6.80;54.84;99067.73;220967;1276;23365;-71
2022/05/01 01:59:27;;;;;;;39.20;23.20;;;;;;;6.73;55.12;99064.33;221179;1274;22559;-71
2022/05/01 02:04:32;;;;;;;39.30;23.80;;;;;;;6.66;55.55;99062.46;221541;1273;22559;-71
2022/05/01 02:09:38;;;;;;;38.10;22.10;;;;;;;6.58;56.04;99060.44;221071;1273;22558;-69
2022/05/01 02:15:01;;;;;;;34.80;21.70;;;;;;;6.56;56.03;99060.59;221611;1273;22540;-71
2022/05/01 02:20:03;;;;;;;40.70;24.50;;;;;;;6.54;56.50;99065.24;221698;1274;23799;-71
2022/05/01 02:25:12;;;;;;;37.20;23.00;;;;;;;6.48;56.62;99062.38;220973;1274;22577;-71
2022/05/01 02:30:24;;;;;;;35.90;22.70;;;;;;;6.44;56.89;99065.65;221262;1273;22578;-71
2022/05/01 02:35:26;;;;;;;38.30;24.70;;;;;;;6.39;57.31;99066.14;221439;1274;22547;-70
2022/05/01 02:40:32;;;;;;;51.10;26.70;;;;;;;6.33;57.29;99064.45;221075;1275;25443;-71
2022/05/01 02:45:34;;;;;;;42.20;26.10;;;;;;;6.27;57.42;99059.86;221407;1273;22553;-71
2022/05/01 02:50:37;;;;;;;43.10;25.90;;;;;;;6.22;57.68;99057.52;221542;1274;22564;-71
2022/05/01 02:55:39;;;;;;;42.40;25.20;;;;;;;6.16;57.80;99057.70;221280;1274;24272;-71
2022/05/01 03:00:41;;;;;;;40.50;24.50;;;;;;;6.10;57.70;99057.16;221384;1273;22579;-71
2022/05/01 03:05:46;;;;;;;41.00;22.60;;;;;;;6.06;57.91;99058.55;221571;1273;22541;-72
2022/05/01 03:10:54;;;;;;;35.70;22.60;;;;;;;6.02;58.14;99059.48;221551;1274;22630;-71
2022/05/01 03:16:00;;;;;;;35.20;22.40;;;;;;;6.00;58.10;99060.36;221383;1274;24560;-71
2022/05/01 03:26:25;;;;;;;41.10;23.90;;;;;;;5.94;58.59;99062.66;221071;1274;24803;-71
2022/05/01 03:31:35;;;;;;;41.70;24.50;;;;;;;5.93;58.60;99056.70;221213;1274;22549;-71
2022/05/01 03:36:39;;;;;;;41.00;24.10;;;;;;;5.93;58.65;99058.61;221514;1273;22625;-71
2022/05/01 03:41:44;;;;;;;41.70;23.30;;;;;;;5.93;59.14;99063.14;221300;1273;22571;-72
2022/05/01 03:46:46;;;;;;;41.10;23.80;;;;;;;5.95;59.08;99060.23;221424;1273;23043;-71
2022/05/01 03:51:48;;;;;;;37.00;23.30;;;;;;;5.99;59.37;99054.23;221451;1274;22657;-70
2022/05/01 03:56:51;;;;;;;39.50;22.60;;;;;;;6.06;59.48;99059.45;221385;1273;25257;-71
2022/05/01 04:01:53;;;;;;;36.80;22.90;;;;;;;6.12;59.76;99062.44;221591;1274;22543;-71
2022/05/01 04:07:05;;;;;;;37.20;22.50;;;;;;;6.21;59.98;99065.77;221252;1274;25303;-71
2022/05/01 04:12:08;;;;;;;36.70;22.30;;;;;;;6.33;60.12;99065.40;221372;1273;25602;-71
2022/05/01 04:17:10;;;;;;;37.50;21.50;;;;;;;6.47;60.10;99063.33;221286;1273;22560;-72
2022/05/01 04:22:12;;;;;;;35.50;21.70;;;;;;;6.64;59.80;99060.42;220989;1273;22623;-71
2022/05/01 04:27:15;;;;;;;35.20;22.20;;;;;;;6.82;59.68;99067.80;221049;1275;22554;-70
2022/05/01 04:32:20;;;;;;;38.80;22.40;;;;;;;6.99;59.75;99073.59;221537;1274;22546;-72
2022/05/01 04:37:25;;;;;;;41.60;22.00;;;;;;;7.21;59.54;99074.04;221238;1274;22569;-71
2022/05/01 04:42:33;;;;;;;34.60;22.00;;;;;;;7.46;59.29;99072.14;221509;1274;22547;-71
2022/05/01 04:47:36;;;;;;;34.30;21.90;;;;;;;7.74;59.05;99068.09;221504;1273;22798;-71
2022/05/01 04:52:52;;;;;;;36.90;22.80;;;;;;;8.00;58.84;99073.91;221323;1274;24289;-72
2022/05/01 04:58:17;;;;;;;42.50;25.80;;;;;;;8.23;58.86;99076.36;221345;1274;25353;-72
2022/05/01 05:03:20;;;;;;;43.80;27.50;;;;;;;8.39;58.71;99070.86;221438;1274;22571;-72
2022/05/01 05:13:52;;;;;;;34.70;23.80;;;;;;;8.68;59.18;99073.52;221321;1274;23057;-72
2022/05/01 05:19:15;;;;;;;33.10;21.90;;;;;;;8.79;58.83;99073.55;221297;1274;26440;-71
2022/05/01 05:24:47;;;;;;;36.60;22.00;;;;;;;8.95;59.10;99071.60;221504;1274;23449;-71
2022/05/01 05:29:49;;;;;;;33.00;20.30;;;;;;;9.06;58.97;99076.83;221655;1274;23889;-71
2022/05/01 05:34:52;;;;;;;29.70;21.30;;;;;;;9.12;58.69;99083.18;219886;1274;24254;-71
2022/05/01 05:40:00;;;;;;;37.70;23.30;;;;;;;9.21;58.48;99087.33;221237;1274;22545;-73
2022/05/01 05:45:03;;;;;;;32.00;20.90;;;;;;;9.34;58.70;99090.87;221714;1274;22576;-71
2022/05/01 05:50:21;;;;;;;33.70;20.80;;;;;;;9.54;58.73;99090.37;221488;1274;23157;-71
2022/05/01 05:55:38;;;;;;;30.20;19.80;;;;;;;9.81;58.19;99095.71;220744;1276;22682;-71
2022/05/01 06:01:17;;;;;;;32.00;19.50;;;;;;;10.16;57.93;99099.59;221103;1274;25246;-71
2022/05/01 06:06:53;;;;;;;26.40;18.30;;;;;;;10.55;57.01;99103.41;221967;1273;22583;-72
2022/05/01 06:12:09;;;;;;;25.10;17.20;;;;;;;10.88;55.92;99103.03;221302;1277;22588;-71
2022/05/01 06:17:14;;;;;;;25.70;18.10;;;;;;;11.08;55.25;99101.52;221462;1274;22760;-71
2022/05/01 06:22:19;;;;;;;25.10;17.60;;;;;;;11.33;54.98;99101.89;220996;1277;22769;-72
2022/05/01 06:27:22;;;;;;;24.20;16.70;;;;;;;11.59;54.77;99102.47;220911;1276;22623;-71
2022/05/01 06:32:29;;;;;;;22.70;16.00;;;;;;;11.87;54.38;99105.02;221103;1273;22559;-71
2022/05/01 06:37:51;;;;;;;22.00;14.90;;;;;;;12.10;53.23;99107.85;221061;1274;25374;-71
2022/05/01 06:42:54;;;;;;;20.40;13.80;;;;;;;12.24;53.10;99105.93;221349;1274;22735;-71
2022/05/01 06:47:57;;;;;;;20.70;15.10;;;;;;;12.40;53.01;99107.48;221450;1274;24209;-71
2022/05/01 06:53:00;;;;;;;21.40;14.20;;;;;;;12.55;52.72;99112.90;221482;1273;22579;-72
2022/05/01 06:58:02;;;;;;;20.00;15.30;;;;;;;12.69;52.59;99111.22;221136;1274;22548;-75
2022/05/01 07:03:18;;;;;;;21.20;15.20;;;;;;;12.94;52.05;99110.15;221408;1274;22541;-72
2022/05/01 07:08:40;;;;;;;19.50;14.60;;;;;;;13.29;51.56;99107.66;220997;1274;24797;-72
2022/05/01 07:13:54;;;;;;;22.50;15.00;;;;;;;13.58;50.89;99101.85;221328;1274;22695;-72
2022/05/01 07:18:56;;;;;;;21.80;14.30;;;;;;;13.86;50.41;99105.64;221124;1274;24225;-72
2022/05/01 07:23:59;;;;;;;19.50;14.00;;;;;;;14.14;50.23;99105.84;221192;1274;22548;-72
2022/05/01 07:29:04;;;;;;;18.40;13.30;;;;;;;14.38;49.68;99100.50;221262;1274;25361;-71
2022/05/01 07:34:07;;;;;;;18.40;12.60;;;;;;;14.66;49.49;99100.20;221331;1274;25372;-71
2022/05/01 07:39:23;;;;;;;18.90;13.30;;;;;;;14.93;48.94;99096.79;221212;1274;22566;-69
2022/05/01 07:45:09;;;;;;;14.80;11.20;;;;;;;15.12;48.14;99096.02;220901;1276;25253;-71
2022/05/01 07:50:28;;;;;;;15.30;11.50;;;;;;;15.16;47.68;99097.80;221554;1274;25858;-71
2022/05/01 07:55:30;;;;;;;14.90;10.90;;;;;;;15.22;47.50;99096.55;221506;1274;24256;-71
2022/05/01 08:00:33;;;;;;;16.50;11.20;;;;;;;15.46;47.43;99093.74;221559;1274;22557;-72
2022/05/01 08:05:36;;;;;;;13.50;10.70;;;;;;;15.67;47.02;99090.63;221518;1274;22535;-70
2022/05/01 08:10:45;;;;;;;14.80;10.70;;;;;;;15.89;46.54;99092.13;221184;1277;22596;-71
2022/05/01 08:15:50;;;;;;;15.50;10.50;;;;;;;16.13;46.25;99089.13;221257;1274;22703;-72
2022/05/01 08:21:09;;;;;;;13.50;9.50;;;;;;;16.41;45.74;99086.16;221392;1274;22575;-71
2022/05/01 08:26:11;;;;;;;13.20;9.80;;;;;;;16.63;45.20;99079.65;221180;1274;22780;-71
2022/05/01 08:31:14;;;;;;;13.20;9.60;;;;;;;16.85;44.73;99080.65;221362;1274;25231;-72
2022/05/01 08:36:17;;;;;;;11.90;9.00;;;;;;;17.09;44.14;99074.91;221549;1274;22732;-72
2022/05/01 08:41:19;;;;;;;13.50;8.90;;;;;;;17.23;43.67;99064.18;221346;1274;23393;-72
2022/05/01 08:46:37;;;;;;;11.20;8.40;;;;;;;17.41;43.46;99062.50;221630;1275;22566;-72
2022/05/01 08:51:42;;;;;;;11.50;8.80;;;;;;;17.64;42.97;99063.33;221294;1274;22539;-72
2022/05/01 08:56:59;;;;;;;11.10;8.00;;;;;;;17.84;42.57;99059.35;221267;1274;23280;-72
2022/05/01 09:02:21;;;;;;;10.30;7.40;;;;;;;18.10;41.97;99056.76;221098;1277;22579;-72
2022/05/01 09:07:24;;;;;;;9.70;7.60;;;;;;;18.32;41.53;99054.39;220829;1279;22632;-71
2022/05/01 09:18:05;;;;;;;8.30;6.20;;;;;;;19.06;40.78;99051.93;221561;1275;22723;-72
2022/05/01 09:23:07;;;;;;;7.30;6.50;;;;;;;19.36;39.82;99046.52;221161;1277;22562;-72
2022/05/01 09:28:23;;;;;;;14.90;7.80;;;;;;;19.59;39.08;99043.48;221470;1274;22595;-72
2022/05/01 09:33:27;;;;;;;8.60;7.20;;;;;;;19.88;39.01;99037.08;221191;1277;22554;-72
2022/05/01 09:38:30;;;;;;;8.30;6.50;;;;;;;20.01;38.05;99035.52;221178;1277;22557;-71
2022/05/01 09:43:35;;;;;;;7.60;6.50;;;;;;;20.10;37.67;99038.56;221535;1274;23519;-71
2022/05/01 09:48:37;;;;;;;8.60;6.30;;;;;;;20.25;37.39;99033.77;221484;1275;22544;-72
2022/05/01 09:53:42;;;;;;;7.60;6.40;;;;;;;20.44;37.28;99035.30;221626;1274;22544;-71
2022/05/01 09:58:45;;;;;;;8.40;6.50;;;;;;;20.61;37.05;99027.86;221506;1274;25446;-71
2022/05/01 10:03:48;;;;;;;7.10;6.00;;;;;;;20.84;36.50;99023.27;221140;1274;24236;-71
2022/05/01 10:08:53;;;;;;;8.10;6.30;;;;;;;20.99;35.94;99022.49;221389;1275;23317;-71
2022/05/01 10:13:56;;;;;;;7.90;6.50;;;;;;;21.18;35.71;99019.11;221154;1274;23103;-71
2022/05/01 10:18:59;;;;;;;8.40;6.50;;;;;;;21.34;35.17;99014.10;220926;1275;23046;-71
2022/05/01 10:24:23;;;;;;;7.80;6.70;;;;;;;21.42;34.54;99011.17;221082;1275;22652;-73
2022/05/01 10:29:38;;;;;;;7.20;6.20;;;;;;;21.59;34.59;99006.24;221190;1277;24095;-72
2022/05/01 10:35:09;;;;;;;6.40;5.50;;;;;;;21.95;34.49;99001.00;221810;1277;22574;-71
2022/05/01 10:40:13;;;;;;;6.50;5.70;;;;;;;22.23;34.59;98996.89;220919;1274;22623;-72
2022/05/01 10:45:25;;;;;;;6.60;5.90;;;;;;;22.48;33.77;99000.39;221151;1274;22682;-71
2022/05/01 10:50:28;;;;;;;6.10;5.50;;;;;;;22.51;32.95;98995.92;221949;1274;22502;-72
2022/05/01 10:55:50;;;;;;;6.10;5.30;;;;;;;22.50;32.40;98991.70;221886;1275;22566;-71
2022/05/01 11:00:54;;;;;;;6.80;6.10;;;;;;;22.60;32.14;98987.28;220983;1274;22584;-72
2022/05/01 11:05:59;;;;;;;6.20;5.60;;;;;;;22.61;31.80;98987.98;222425;1274;22666;-71
2022/05/01 11:11:08;;;;;;;6.20;5.60;;;;;;;22.59;31.59;98988.66;221237;1274;25626;-73
2022/05/01 11:16:13;;;;;;;5.80;5.20;;;;;;;22.54;31.53;98990.14;221735;1277;22544;-73
2022/05/01 11:21:47;;;;;;;7.20;4.70;;;;;;;22.59;31.17;98984.13;220933;1274;22577;-71
2022/05/01 11:27:17;;;;;;;5.00;4.60;;;;;;;22.46;30.37;98982.11;221474;1274;24260;-72
2022/05/01 11:32:20;;;;;;;5.80;5.10;;;;;;;22.31;30.64;98982.59;221344;1277;22723;-71
2022/05/01 11:37:23;;;;;;;5.60;5.10;;;;;;;22.31;30.47;98980.58;221297;1275;22554;-72
2022/05/01 11:42:35;;;;;;;5.60;4.90;;;;;;;22.24;30.31;98977.31;221279;1275;25790;-72
2022/05/01 11:47:40;;;;;;;5.60;4.60;;;;;;;22.27;30.15;98970.81;221883;1274;23126;-72
2022/05/01 11:52:49;;;;;;;6.90;5.50;;;;;;;22.39;30.20;98968.72;221706;1274;25354;-71
2022/05/01 12:03:27;;;;;;;7.90;5.50;;;;;;;22.61;29.91;98961.55;221277;1275;24330;-71
2022/05/01 12:08:29;;;;;;;6.80;6.00;;;;;;;22.59;30.15;98959.34;220786;1274;437842;-72
2022/05/01 12:13:32;;;;;;;6.00;5.40;;;;;;;22.54;29.82;98960.42;221129;1273;25229;-71
2022/05/01 12:18:55;;;;;;;6.00;5.50;;;;;;;22.40;29.87;98958.15;221236;1274;22809;-71
2022/05/01 12:24:14;;;;;;;6.20;5.60;;;;;;;22.40;29.76;98950.75;221255;1277;22534;-71
2022/05/01 12:29:17;;;;;;;5.60;5.10;;;;;;;22.51;29.50;98944.61;221111;1274;22537;-72
2022/05/01 12:34:28;;;;;;;5.50;4.70;;;;;;;22.52;29.54;98940.33;221069;1275;22556;-72
2022/05/01 12:39:31;;;;;;;6.20;5.60;;;;;;;22.69;29.72;98938.05;221320;1274;24013;-72
2022/05/01 12:44:34;;;;;;;5.70;5.10;;;;;;;22.89;29.56;98932.56;221762;1274;22767;-72
2022/05/01 12:49:39;;;;;;;5.90;5.40;;;;;;;22.88;28.93;98927.48;221205;1274;23451;-71
2022/05/01 12:55:16;;;;;;;9.20;8.30;;;;;;;22.84;28.70;98921.27;221331;1274;24229;-72
2022/05/01 13:00:31;;;;;;;6.20;5.60;;;;;;;22.83;29.28;98920.78;221450;1274;25381;-72
2022/05/01 13:05:33;;;;;;;7.00;5.40;;;;;;;22.84;29.23;98919.55;221914;1274;25261;-72
2022/05/01 13:11:23;;;;;;;5.70;5.20;;;;;;;22.94;28.67;98910.56;221163;1274;22674;-72
2022/05/01 13:16:51;;;;;;;6.20;5.20;;;;;;;22.97;28.69;98913.03;221321;1274;23133;-72
2022/05/01 13:21:56;;;;;;;5.50;5.00;;;;;;;22.88;28.48;98912.05;221183;1274;23703;-71
2022/05/01 13:27:23;;;;;;;5.80;5.20;;;;;;;22.71;28.34;98904.99;220946;1274;24154;-72
2022/05/01 13:32:36;;;;;;;5.60;5.10;;;;;;;22.48;28.42;98900.98;221330;1274;25241;-71
2022/05/01 13:37:38;;;;;;;5.00;4.60;;;;;;;22.31;28.51;98895.05;221074;1273;23221;-71
2022/05/01 13:48:02;;;;;;;4.80;4.30;;;;;;;22.06;28.13;98890.89;221058;1275;22766;-72
2022/05/01 13:53:12;;;;;;;5.10;4.50;;;;;;;21.89;28.30;98889.48;221277;1274;22532;-71
2022/05/01 13:58:15;;;;;;;5.00;4.60;;;;;;;21.84;28.59;98886.11;221392;1274;25248;-71
2022/05/01 14:03:19;;;;;;;7.10;5.10;;;;;;;21.82;28.79;98887.63;222270;1274;25412;-71
2022/05/01 14:08:21;;;;;;;6.40;4.80;;;;;;;21.75;29.11;98887.35;221237;1274;22533;-71
2022/05/01 14:13:24;;;;;;;5.90;4.70;;;;;;;21.54;29.57;98884.35;221186;1273;25202;-71
2022/05/01 14:18:34;;;;;;;6.00;4.70;;;;;;;21.35;30.08;98883.35;221149;1274;24381;-71
2022/05/01 14:23:45;;;;;;;5.30;4.80;;;;;;;21.23;30.62;98880.06;221220;1275;22560;-71
2022/05/01 14:28:47;;;;;;;7.20;4.30;;;;;;;21.16;31.18;98879.06;221580;1274;22681;-71
2022/05/01 14:34:24;;;;;;;4.80;4.30;;;;;;;21.10;31.55;98881.27;221148;1274;22542;-72
2022/05/01 14:39:31;;;;;;;5.00;4.20;;;;;;;20.91;31.61;98878.19;221219;1274;24146;-71
2022/05/01 14:45:04;;;;;;;5.10;4.60;;;;;;;20.71;31.66;98878.14;220933;1274;22612;-72
2022/05/01 14:50:10;;;;;;;4.80;3.80;;;;;;;20.53;31.79;98874.27;220883;1276;22557;-72
2022/05/01 14:55:15;;;;;;;6.80;4.30;;;;;;;20.34;32.17;98875.84;221335;1274;23298;-73
2022/05/01 15:11:00;;;;;;;4.10;3.50;;;;;;;20.07;32.38;98875.70;221194;1274;23145;-71
2022/05/01 15:16:51;;;;;;;5.00;3.90;;;;;;;19.95;32.67;98874.48;221170;1274;22705;-71
2022/05/01 15:22:34;;;;;;;6.40;4.10;;;;;;;19.79;33.07;98871.63;221340;1274;23323;-72
2022/05/01 15:27:51;;;;;;;4.30;3.80;;;;;;;19.63;33.29;98872.27;221391;1274;24272;-72
2022/05/01 15:38:54;;;;;;;5.40;3.90;;;;;;;19.42;33.92;98876.11;221361;1273;22569;-71
2022/05/01 15:44:09;;;;;;;5.30;3.90;;;;;;;19.32;34.01;98872.34;221309;1274;22547;-71
2022/05/01 15:54:39;;;;;;;5.30;3.60;;;;;;;19.16;34.55;98869.18;221262;1273;24225;-71
2022/05/01 15:59:45;;;;;;;5.20;3.80;;;;;;;19.07;34.66;98867.98;221132;1274;24251;-71
2022/05/01 16:04:50;;;;;;;3.70;3.40;;;;;;;18.93;34.71;98863.60;220994;1274;23010;-72
2022/05/01 16:09:55;;;;;;;6.50;4.30;;;;;;;18.73;34.82;98864.15;221324;1274;25575;-70
2022/05/01 16:15:17;;;;;;;5.20;3.30;;;;;;;18.54;35.11;98866.81;221286;1274;24252;-71
2022/05/01 16:20:21;;;;;;;5.00;4.00;;;;;;;18.39;35.69;98861.84;221058;1274;22581;-71
2022/05/01 16:25:35;;;;;;;4.20;3.80;;;;;;;18.25;35.94;98860.70;221003;1274;22553;-72
2022/05/01 16:30:47;;;;;;;4.40;3.80;;;;;;;18.13;35.87;98864.25;220979;1273;26688;-71
2022/05/01 16:35:57;;;;;;;6.00;4.50;;;;;;;18.02;35.91;98860.10;221172;1274;22746;-71
2022/05/01 16:41:10;;;;;;;5.10;4.30;;;;;;;17.90;35.87;98859.77;221189;1274;23202;-72
2022/05/01 16:46:26;;;;;;;4.60;3.80;;;;;;;17.78;35.95;98864.52;221153;1274;22666;-71
2022/05/01 16:51:34;;;;;;;4.00;3.30;;;;;;;17.68;35.92;98865.32;221137;1274;22691;-72
2022/05/01 16:56:43;;;;;;;4.70;3.90;;;;;;;17.61;35.78;98862.70;221358;1274;22964;-70
2022/05/01 17:02:06;;;;;;;;;;;;;;;;;;;;;
2022/05/01 17:07:56;;;;;;;5.20;3.60;;;;;;;17.54;35.69;98863.41;221355;1274;25898;-71
2022/05/01 17:14:01;;;;;;;5.80;4.10;;;;;;;17.49;35.83;98868.08;221096;1274;22567;-71
2022/05/01 17:19:28;;;;;;;9.30;6.10;;;;;;;17.42;35.98;98869.59;221379;1274;22586;-72
2022/05/01 17:25:00;;;;;;;8.30;6.60;;;;;;;17.34;36.43;98872.79;221300;1274;22559;-71
2022/05/01 17:30:08;;;;;;;13.50;8.00;;;;;;;17.26;36.80;98874.71;220801;1276;22560;-72
2022/05/01 17:35:27;;;;;;;12.90;7.90;;;;;;;17.16;37.04;98879.16;221418;1274;23987;-72
2022/05/01 17:40:29;;;;;;;15.20;9.00;;;;;;;17.04;37.29;98878.80;221157;1274;25400;-72
2022/05/01 17:45:32;;;;;;;10.90;7.00;;;;;;;16.93;37.33;98879.91;221274;1273;24290;-71
2022/05/01 17:50:36;;;;;;;9.70;6.30;;;;;;;16.82;37.47;98875.91;221131;1274;22640;-71
2022/05/01 17:55:39;;;;;;;9.10;6.50;;;;;;;16.71;37.53;98874.55;221254;1274;22708;-72
2022/05/01 18:01:24;;;;;;;10.20;6.90;;;;;;;16.60;37.74;98878.16;221241;1274;22564;-72
2022/05/01 18:11:58;;;;;;;14.40;8.60;;;;;;;16.32;38.17;98880.34;221254;1274;25327;-72
2022/05/01 18:17:14;;;;;;;11.90;6.70;;;;;;;16.22;37.96;98883.11;221902;1273;24425;-72
2022/05/01 18:22:17;;;;;;;10.50;6.60;;;;;;;16.16;37.89;98885.86;221225;1274;22546;-71
2022/05/01 18:27:22;;;;;;;6.40;4.70;;;;;;;16.11;37.60;98889.54;221263;1274;26444;-72
2022/05/01 18:32:40;;;;;;;5.30;4.30;;;;;;;16.16;37.42;98892.90;221996;1273;22748;-72
2022/05/01 18:37:57;;;;;;;4.80;4.10;;;;;;;16.16;37.50;98893.52;220968;1274;25667;-71
2022/05/01 18:43:03;;;;;;;5.20;4.70;;;;;;;16.10;37.74;98895.83;220980;1273;22671;-72
2022/05/01 18:48:08;;;;;;;8.20;6.50;;;;;;;16.01;38.30;98900.52;222301;1274;25251;-71
2022/05/01 18:53:22;;;;;;;11.20;7.80;;;;;;;15.87;39.10;98902.96;221060;1274;24249;-72
2022/05/01 18:58:29;;;;;;;12.60;8.10;;;;;;;15.71;39.53;98906.07;221023;1272;22672;-71
2022/05/01 19:03:39;;;;;;;15.40;10.60;;;;;;;15.55;39.95;98908.55;221488;1274;25412;-71
2022/05/01 19:08:49;;;;;;;21.70;12.10;;;;;;;15.43;40.20;98904.45;221434;1274;23816;-71
2022/05/01 19:14:02;;;;;;;15.40;11.40;;;;;;;15.34;40.42;98909.41;221289;1274;22547;-71
2022/05/01 19:19:25;;;;;;;18.50;11.40;;;;;;;15.26;40.54;98911.12;222270;1273;24879;-71
2022/05/01 19:31:35;;;;;;;18.30;12.60;;;;;;;15.11;41.04;98918.92;221072;1273;24211;-72
2022/05/01 19:37:04;;;;;;;17.50;10.30;;;;;;;15.00;41.55;98927.13;220240;1273;22562;-71
2022/05/01 19:42:36;;;;;;;14.90;9.90;;;;;;;14.84;42.04;98923.31;220798;1274;22554;-71
2022/05/01 19:53:57;;;;;;;11.40;8.90;;;;;;;14.52;42.24;98921.98;221246;1274;22572;-71
2022/05/01 19:59:03;;;;;;;12.80;9.70;;;;;;;14.41;42.20;98918.27;220966;1274;22711;-72
2022/05/01 20:04:21;;;;;;;13.50;9.40;;;;;;;14.31;42.24;98920.27;221223;1274;22552;-71
2022/05/01 20:09:23;;;;;;;13.10;9.30;;;;;;;14.18;42.50;98919.79;221210;1274;23243;-71
2022/05/01 20:14:26;;;;;;;15.00;9.90;;;;;;;14.04;42.71;98919.30;221248;1273;26377;-72
2022/05/01 20:19:45;;;;;;;14.20;9.60;;;;;;;13.89;42.98;98917.08;221260;1273;24220;-72
2022/05/01 20:25:06;;;;;;;18.60;13.40;;;;;;;13.73;43.48;98922.30;221126;1274;25370;-72
2022/05/01 20:30:15;;;;;;;21.90;15.00;;;;;;;13.57;44.14;98923.37;221269;1273;24319;-73
2022/05/01 20:35:19;;;;;;;28.10;16.40;;;;;;;13.43;44.34;98923.30;220909;1274;24686;-72
2022/05/01 20:40:29;;;;;;;27.20;16.40;;;;;;;13.33;44.57;98923.77;220892;1273;22563;-72
2022/05/01 20:45:46;;;;;;;19.70;13.10;;;;;;;13.26;45.01;98923.70;221220;1273;24406;-71
2022/05/01 20:50:56;;;;;;;17.50;11.00;;;;;;;13.19;45.13;98917.93;221063;1273;22559;-71
2022/05/01 20:56:02;;;;;;;20.50;15.50;;;;;;;13.13;45.16;98923.91;221132;1273;23059;-72
2022/05/01 21:01:13;;;;;;;30.20;21.30;;;;;;;13.07;45.45;98925.39;221347;1274;23087;-71
2022/05/01 21:06:19;;;;;;;21.30;18.00;;;;;;;13.01;45.41;98920.39;220979;1274;22568;-72
2022/05/01 21:11:21;;;;;;;22.10;17.90;;;;;;;12.99;45.73;98918.55;221271;1274;23374;-71
2022/05/01 21:16:24;;;;;;;13.30;10.00;;;;;;;12.92;45.94;98915.73;221497;1274;22574;-72
2022/05/01 21:21:27;;;;;;;16.20;12.40;;;;;;;12.85;46.10;98914.36;221134;1273;22633;-72
2022/05/01 21:26:29;;;;;;;16.90;11.40;;;;;;;12.80;46.07;98908.84;221277;1273;22724;-71
2022/05/01 21:36:59;;;;;;;13.10;9.80;;;;;;;12.70;46.21;98906.45;220991;1274;22579;-71
2022/05/01 21:42:03;;;;;;;13.20;10.30;;;;;;;12.66;46.50;98904.54;220632;1276;23258;-71
2022/05/01 21:47:05;;;;;;;13.40;10.20;;;;;;;12.61;46.61;98907.90;221281;1274;25344;-72
2022/05/01 21:52:11;;;;;;;13.50;8.80;;;;;;;12.54;46.87;98907.94;221213;1274;23002;-73
2022/05/01 21:57:13;;;;;;;21.90;13.30;;;;;;;12.44;46.88;98910.11;221059;1274;23236;-72
2022/05/01 22:02:16;;;;;;;15.30;11.90;;;;;;;12.39;47.12;98904.51;221272;1274;25264;-72
2022/05/01 22:07:18;;;;;;;15.30;11.10;;;;;;;12.33;47.67;98903.48;221190;1274;25357;-71
2022/05/01 22:12:21;;;;;;;22.00;14.40;;;;;;;12.25;47.89;98903.30;221118;1274;23124;-72
2022/05/01 22:17:23;;;;;;;26.50;16.70;;;;;;;12.15;48.10;98908.11;221250;1273;22708;-73
2022/05/01 22:22:33;;;;;;;25.90;17.00;;;;;;;12.05;48.32;98904.56;221035;1273;23093;-71
2022/05/01 22:27:38;;;;;;;28.20;16.90;;;;;;;11.98;48.46;98901.25;220864;1274;22566;-72
2022/05/01 22:32:51;;;;;;;26.40;16.90;;;;;;;11.91;49.25;98899.77;221425;1274;22553;-72
2022/05/01 22:38:01;;;;;;;35.80;22.00;;;;;;;11.79;50.23;98904.31;221339;1274;23384;-72
2022/05/01 22:43:07;;;;;;;43.00;26.00;;;;;;;11.64;51.22;98903.36;221228;1273;22532;-72
2022/05/01 22:48:09;;;;;;;41.40;24.30;;;;;;;11.56;51.41;98901.92;221709;1274;22542;-72
2022/05/01 22:53:12;;;;;;;38.00;23.90;;;;;;;11.52;51.74;98902.80;221179;1273;22537;-72
2022/05/01 22:58:28;;;;;;;37.70;23.90;;;;;;;11.52;51.87;98896.94;221847;1276;23820;-72
2022/05/01 23:03:38;;;;;;;39.90;24.80;;;;;;;11.53;52.42;98893.48;221305;1274;22536;-71
2022/05/01 23:08:40;;;;;;;37.70;23.60;;;;;;;11.52;52.77;98893.89;221124;1274;24931;-71
2022/05/01 23:13:44;;;;;;;39.40;22.90;;;;;;;11.51;53.33;98884.68;220956;1273;22647;-71
2022/05/01 23:18:50;;;;;;;37.00;25.20;;;;;;;11.49;53.26;98877.08;221037;1274;25449;-72
2022/05/01 23:23:52;;;;;;;40.10;24.60;;;;;;;11.48;53.21;98876.73;221291;1274;22671;-72
2022/05/01 23:28:58;;;;;;;34.50;22.20;;;;;;;11.44;53.19;98878.21;221275;1274;22579;-71
2022/05/01 23:34:03;;;;;;;39.90;23.10;;;;;;;11.42;52.95;98874.77;221066;1274;25447;-71
2022/05/01 23:39:06;;;;;;;34.80;22.90;;;;;;;11.41;53.13;98872.89;221218;1274;22572;-72
2022/05/01 23:44:08;;;;;;;38.80;23.40;;;;;;;11.39;53.49;98878.08;220892;1273;25628;-72
2022/05/01 23:49:14;;;;;;;32.70;23.50;;;;;;;11.33;54.26;98873.17;220992;1273;24289;-71
2022/05/01 23:54:16;;;;;;;35.00;22.80;;;;;;;11.23;54.81;98870.39;221273;1274;22578;-72
2022/05/01 23:59:19;;;;;;;31.50;21.70;;;;;;;11.12;55.05;98869.77;221242;1274;25869;-71
